sensor_id;sensor_type;location;lat;lon;timestamp;P1;durP1;ratioP1;P2;durP2;ratioP2
23388;SDS011;11867;51.198;11.966;2023-08-31T00:01:08;1.27;;;0.88;;
23388;SDS011;11867;51.198;11.966;2023-08-31T00:02:30;1.67;;;0.82;;
23388;SDS011;11867;51.198;11.966;2023-08-31T00:03:53;1.65;;;1.00;;
23388;SDS011;11867;51.198;11.966;2023-08-31T00:05:16;2.95;;;0.68;;
23388;SDS011;11867;51.198;11.966;2023-08-31T00:06:39;1.02;;;0.80;;
23388;SDS011;11867;51.198;11.966;2023-08-31T00:08:01;1.30;;;1.17;;
23388;SDS011;11867;51.198;11.966;2023-08-31T00:09:24;3.25;;;0.88;;
23388;SDS011;11867;51.198;11.966;2023-08-31T00:10:46;1.88;;;0.90;;
23388;SDS011;11867;51.198;11.966;2023-08-31T00:12:17;1.63;;;1.10;;
23388;SDS011;11867;51.198;11.966;2023-08-31T00:13:41;1.48;;;1.00;;
23388;SDS011;11867;51.198;11.966;2023-08-31T00:15:04;1.30;;;0.77;;
23388;SDS011;11867;51.198;11.966;2023-08-31T00:16:27;1.10;;;0.85;;
23388;SDS011;11867;51.198;11.966;2023-08-31T00:17:51;1.15;;;0.77;;
23388;SDS011;11867;51.198;11.966;2023-08-31T00:19:13;0.93;;;0.77;;
23388;SDS011;11867;51.198;11.966;2023-08-31T00:20:37;0.80;;;0.70;;
23388;SDS011;11867;51.198;11.966;2023-08-31T00:21:59;1.15;;;0.57;;
23388;SDS011;11867;51.198;11.966;2023-08-31T00:23:22;3.22;;;0.80;;
23388;SDS011;11867;51.198;11.966;2023-08-31T00:24:44;2.92;;;0.98;;
23388;SDS011;11867;51.198;11.966;2023-08-31T00:26:08;1.02;;;0.73;;
23388;SDS011;11867;51.198;11.966;2023-08-31T00:27:30;1.17;;;0.80;;
23388;SDS011;11867;51.198;11.966;2023-08-31T00:28:55;1.35;;;0.55;;
23388;SDS011;11867;51.198;11.966;2023-08-31T00:30:17;1.05;;;0.80;;
23388;SDS011;11867;51.198;11.966;2023-08-31T00:31:40;2.05;;;1.00;;
23388;SDS011;11867;51.198;11.966;2023-08-31T00:33:04;2.65;;;0.70;;
23388;SDS011;11867;51.198;11.966;2023-08-31T00:34:26;0.60;;;0.60;;
23388;SDS011;11867;51.198;11.966;2023-08-31T00:35:49;1.10;;;0.70;;
23388;SDS011;11867;51.198;11.966;2023-08-31T00:37:11;0.80;;;0.70;;
23388;SDS011;11867;51.198;11.966;2023-08-31T00:38:34;1.45;;;0.70;;
23388;SDS011;11867;51.198;11.966;2023-08-31T00:39:57;2.40;;;0.80;;
23388;SDS011;11867;51.198;11.966;2023-08-31T00:41:19;0.95;;;0.70;;
23388;SDS011;11867;51.198;11.966;2023-08-31T00:42:42;1.17;;;0.73;;
23388;SDS011;11867;51.198;11.966;2023-08-31T00:44:06;0.70;;;0.60;;
23388;SDS011;11867;51.198;11.966;2023-08-31T00:45:29;0.98;;;0.82;;
23388;SDS011;11867;51.198;11.966;2023-08-31T00:46:51;0.70;;;0.70;;
23388;SDS011;11867;51.198;11.966;2023-08-31T00:48:14;1.25;;;0.70;;
23388;SDS011;11867;51.198;11.966;2023-08-31T00:49:38;2.65;;;1.63;;
23388;SDS011;11867;51.198;11.966;2023-08-31T00:51:02;1.20;;;0.63;;
23388;SDS011;11867;51.198;11.966;2023-08-31T00:52:25;0.80;;;0.70;;
23388;SDS011;11867;51.198;11.966;2023-08-31T00:53:48;0.82;;;0.60;;
23388;SDS011;11867;51.198;11.966;2023-08-31T00:55:10;0.82;;;0.70;;
23388;SDS011;11867;51.198;11.966;2023-08-31T00:56:34;1.05;;;0.95;;
23388;SDS011;11867;51.198;11.966;2023-08-31T00:57:56;1.00;;;0.82;;
23388;SDS011;11867;51.198;11.966;2023-08-31T00:59:23;1.60;;;0.70;;
23388;SDS011;11867;51.198;11.966;2023-08-31T01:00:46;1.27;;;0.68;;
23388;SDS011;11867;51.198;11.966;2023-08-31T01:03:43;1.23;;;0.90;;
23388;SDS011;11867;51.198;11.966;2023-08-31T01:05:20;1.95;;;0.90;;
23388;SDS011;11867;51.198;11.966;2023-08-31T01:06:53;2.00;;;0.80;;
23388;SDS011;11867;51.198;11.966;2023-08-31T01:08:33;0.95;;;0.73;;
23388;SDS011;11867;51.198;11.966;2023-08-31T01:10:04;1.08;;;0.80;;
23388;SDS011;11867;51.198;11.966;2023-08-31T01:11:41;2.22;;;0.88;;
23388;SDS011;11867;51.198;11.966;2023-08-31T01:13:14;2.00;;;0.60;;
23388;SDS011;11867;51.198;11.966;2023-08-31T01:14:46;1.77;;;0.80;;
23388;SDS011;11867;51.198;11.966;2023-08-31T01:16:15;3.58;;;0.90;;
23388;SDS011;11867;51.198;11.966;2023-08-31T01:17:40;0.70;;;0.70;;
23388;SDS011;11867;51.198;11.966;2023-08-31T01:19:15;1.60;;;0.80;;
23388;SDS011;11867;51.198;11.966;2023-08-31T01:20:55;1.30;;;0.70;;
23388;SDS011;11867;51.198;11.966;2023-08-31T01:22:37;2.20;;;0.90;;
23388;SDS011;11867;51.198;11.966;2023-08-31T01:24:05;1.25;;;0.75;;
23388;SDS011;11867;51.198;11.966;2023-08-31T01:25:27;0.80;;;0.80;;
23388;SDS011;11867;51.198;11.966;2023-08-31T01:26:52;1.33;;;0.90;;
23388;SDS011;11867;51.198;11.966;2023-08-31T01:28:15;1.25;;;0.77;;
23388;SDS011;11867;51.198;11.966;2023-08-31T01:29:38;4.25;;;1.15;;
23388;SDS011;11867;51.198;11.966;2023-08-31T01:31:03;1.20;;;0.93;;
23388;SDS011;11867;51.198;11.966;2023-08-31T01:32:27;1.10;;;1.00;;
23388;SDS011;11867;51.198;11.966;2023-08-31T01:33:49;2.25;;;0.70;;
23388;SDS011;11867;51.198;11.966;2023-08-31T01:35:13;1.73;;;0.95;;
23388;SDS011;11867;51.198;11.966;2023-08-31T01:36:38;1.25;;;1.00;;
23388;SDS011;11867;51.198;11.966;2023-08-31T01:38:06;2.38;;;1.15;;
23388;SDS011;11867;51.198;11.966;2023-08-31T01:39:33;4.53;;;1.90;;
23388;SDS011;11867;51.198;11.966;2023-08-31T01:41:00;1.00;;;0.90;;
23388;SDS011;11867;51.198;11.966;2023-08-31T01:42:26;1.38;;;1.00;;
23388;SDS011;11867;51.198;11.966;2023-08-31T01:43:52;1.58;;;1.40;;
23388;SDS011;11867;51.198;11.966;2023-08-31T01:45:15;1.92;;;1.00;;
23388;SDS011;11867;51.198;11.966;2023-08-31T01:46:45;1.02;;;0.95;;
23388;SDS011;11867;51.198;11.966;2023-08-31T01:48:07;2.45;;;1.08;;
23388;SDS011;11867;51.198;11.966;2023-08-31T01:49:35;2.17;;;1.10;;
23388;SDS011;11867;51.198;11.966;2023-08-31T01:50:58;1.25;;;1.13;;
23388;SDS011;11867;51.198;11.966;2023-08-31T01:52:22;1.55;;;1.20;;
23388;SDS011;11867;51.198;11.966;2023-08-31T01:53:44;1.35;;;1.08;;
23388;SDS011;11867;51.198;11.966;2023-08-31T01:55:09;1.30;;;1.10;;
23388;SDS011;11867;51.198;11.966;2023-08-31T01:56:31;2.60;;;1.08;;
23388;SDS011;11867;51.198;11.966;2023-08-31T01:57:54;1.42;;;1.17;;
23388;SDS011;11867;51.198;11.966;2023-08-31T01:59:17;1.25;;;1.08;;
23388;SDS011;11867;51.198;11.966;2023-08-31T02:00:39;2.47;;;1.10;;
23388;SDS011;11867;51.198;11.966;2023-08-31T02:02:02;3.78;;;1.33;;
23388;SDS011;11867;51.198;11.966;2023-08-31T02:03:25;1.13;;;0.95;;
23388;SDS011;11867;51.198;11.966;2023-08-31T02:04:48;1.80;;;1.40;;
23388;SDS011;11867;51.198;11.966;2023-08-31T02:06:12;1.27;;;1.10;;
23388;SDS011;11867;51.198;11.966;2023-08-31T02:07:35;1.20;;;1.10;;
23388;SDS011;11867;51.198;11.966;2023-08-31T02:08:58;2.78;;;1.05;;
23388;SDS011;11867;51.198;11.966;2023-08-31T02:10:22;1.58;;;1.48;;
23388;SDS011;11867;51.198;11.966;2023-08-31T02:11:44;1.45;;;1.10;;
23388;SDS011;11867;51.198;11.966;2023-08-31T02:13:09;1.35;;;1.10;;
23388;SDS011;11867;51.198;11.966;2023-08-31T02:14:31;1.30;;;1.20;;
23388;SDS011;11867;51.198;11.966;2023-08-31T02:15:54;1.65;;;1.30;;
23388;SDS011;11867;51.198;11.966;2023-08-31T02:17:17;3.20;;;1.52;;
23388;SDS011;11867;51.198;11.966;2023-08-31T02:18:40;1.30;;;1.20;;
23388;SDS011;11867;51.198;11.966;2023-08-31T02:20:02;2.22;;;1.48;;
23388;SDS011;11867;51.198;11.966;2023-08-31T02:21:26;1.90;;;1.30;;
23388;SDS011;11867;51.198;11.966;2023-08-31T02:22:48;2.17;;;1.50;;
23388;SDS011;11867;51.198;11.966;2023-08-31T02:24:11;3.17;;;1.40;;
23388;SDS011;11867;51.198;11.966;2023-08-31T02:25:35;3.83;;;1.45;;
23388;SDS011;11867;51.198;11.966;2023-08-31T02:26:58;3.17;;;1.70;;
23388;SDS011;11867;51.198;11.966;2023-08-31T02:28:20;2.28;;;1.60;;
23388;SDS011;11867;51.198;11.966;2023-08-31T02:29:43;1.67;;;1.33;;
23388;SDS011;11867;51.198;11.966;2023-08-31T02:31:05;3.65;;;1.70;;
23388;SDS011;11867;51.198;11.966;2023-08-31T02:32:28;2.03;;;1.58;;
23388;SDS011;11867;51.198;11.966;2023-08-31T02:33:50;1.70;;;1.52;;
23388;SDS011;11867;51.198;11.966;2023-08-31T02:35:14;2.50;;;1.60;;
23388;SDS011;11867;51.198;11.966;2023-08-31T02:36:36;2.63;;;1.70;;
23388;SDS011;11867;51.198;11.966;2023-08-31T02:37:59;3.00;;;1.73;;
23388;SDS011;11867;51.198;11.966;2023-08-31T02:39:21;2.28;;;1.70;;
23388;SDS011;11867;51.198;11.966;2023-08-31T02:40:47;2.80;;;2.10;;
23388;SDS011;11867;51.198;11.966;2023-08-31T02:42:10;1.90;;;1.70;;
23388;SDS011;11867;51.198;11.966;2023-08-31T02:43:33;3.70;;;2.47;;
23388;SDS011;11867;51.198;11.966;2023-08-31T02:44:55;2.38;;;2.17;;
23388;SDS011;11867;51.198;11.966;2023-08-31T02:46:18;4.05;;;2.42;;
23388;SDS011;11867;51.198;11.966;2023-08-31T02:47:40;3.45;;;2.03;;
23388;SDS011;11867;51.198;11.966;2023-08-31T02:49:03;2.88;;;2.38;;
23388;SDS011;11867;51.198;11.966;2023-08-31T02:50:25;2.45;;;2.05;;
23388;SDS011;11867;51.198;11.966;2023-08-31T02:51:48;3.95;;;3.00;;
23388;SDS011;11867;51.198;11.966;2023-08-31T02:53:11;4.68;;;2.80;;
23388;SDS011;11867;51.198;11.966;2023-08-31T02:54:34;3.03;;;2.83;;
23388;SDS011;11867;51.198;11.966;2023-08-31T02:55:58;5.88;;;2.80;;
23388;SDS011;11867;51.198;11.966;2023-08-31T02:57:21;3.53;;;3.22;;
23388;SDS011;11867;51.198;11.966;2023-08-31T02:58:43;3.13;;;2.78;;
23388;SDS011;11867;51.198;11.966;2023-08-31T03:00:06;2.95;;;2.65;;
23388;SDS011;11867;51.198;11.966;2023-08-31T03:01:34;5.47;;;2.95;;
23388;SDS011;11867;51.198;11.966;2023-08-31T03:02:57;3.92;;;2.80;;
23388;SDS011;11867;51.198;11.966;2023-08-31T03:04:19;4.45;;;3.00;;
23388;SDS011;11867;51.198;11.966;2023-08-31T03:05:43;4.70;;;3.13;;
23388;SDS011;11867;51.198;11.966;2023-08-31T03:07:06;4.30;;;2.78;;
23388;SDS011;11867;51.198;11.966;2023-08-31T03:08:29;2.92;;;2.70;;
23388;SDS011;11867;51.198;11.966;2023-08-31T03:09:51;3.78;;;3.00;;
23388;SDS011;11867;51.198;11.966;2023-08-31T03:11:15;4.45;;;2.92;;
23388;SDS011;11867;51.198;11.966;2023-08-31T03:12:37;5.45;;;2.90;;
23388;SDS011;11867;51.198;11.966;2023-08-31T03:14:00;3.40;;;2.70;;
23388;SDS011;11867;51.198;11.966;2023-08-31T03:15:23;4.50;;;3.05;;
23388;SDS011;11867;51.198;11.966;2023-08-31T03:16:46;3.55;;;3.00;;
23388;SDS011;11867;51.198;11.966;2023-08-31T03:18:08;3.00;;;2.70;;
23388;SDS011;11867;51.198;11.966;2023-08-31T03:19:31;3.47;;;3.15;;
23388;SDS011;11867;51.198;11.966;2023-08-31T03:20:53;4.65;;;3.30;;
23388;SDS011;11867;51.198;11.966;2023-08-31T03:22:17;3.42;;;2.97;;
23388;SDS011;11867;51.198;11.966;2023-08-31T03:23:38;5.32;;;3.42;;
23388;SDS011;11867;51.198;11.966;2023-08-31T03:25:02;4.07;;;3.00;;
23388;SDS011;11867;51.198;11.966;2023-08-31T03:26:25;4.45;;;3.38;;
23388;SDS011;11867;51.198;11.966;2023-08-31T03:27:48;6.68;;;3.70;;
23388;SDS011;11867;51.198;11.966;2023-08-31T03:29:10;4.35;;;3.38;;
23388;SDS011;11867;51.198;11.966;2023-08-31T03:30:33;3.80;;;3.40;;
23388;SDS011;11867;51.198;11.966;2023-08-31T03:31:55;7.90;;;3.97;;
23388;SDS011;11867;51.198;11.966;2023-08-31T03:33:18;3.88;;;3.55;;
23388;SDS011;11867;51.198;11.966;2023-08-31T03:34:40;4.07;;;3.50;;
23388;SDS011;11867;51.198;11.966;2023-08-31T03:36:03;7.80;;;4.75;;
23388;SDS011;11867;51.198;11.966;2023-08-31T03:37:26;5.22;;;4.00;;
23388;SDS011;11867;51.198;11.966;2023-08-31T03:38:49;7.75;;;4.40;;
23388;SDS011;11867;51.198;11.966;2023-08-31T03:40:11;4.50;;;4.00;;
23388;SDS011;11867;51.198;11.966;2023-08-31T03:41:35;6.35;;;4.07;;
23388;SDS011;11867;51.198;11.966;2023-08-31T03:42:57;7.18;;;4.63;;
23388;SDS011;11867;51.198;11.966;2023-08-31T03:44:20;6.50;;;4.32;;
23388;SDS011;11867;51.198;11.966;2023-08-31T03:45:43;5.65;;;4.50;;
23388;SDS011;11867;51.198;11.966;2023-08-31T03:47:06;4.50;;;4.10;;
23388;SDS011;11867;51.198;11.966;2023-08-31T03:48:28;6.22;;;4.60;;
23388;SDS011;11867;51.198;11.966;2023-08-31T03:49:51;4.88;;;4.20;;
23388;SDS011;11867;51.198;11.966;2023-08-31T03:51:13;4.93;;;3.47;;
23388;SDS011;11867;51.198;11.966;2023-08-31T03:52:36;5.28;;;3.97;;
23388;SDS011;11867;51.198;11.966;2023-08-31T03:53:58;5.38;;;3.97;;
23388;SDS011;11867;51.198;11.966;2023-08-31T03:55:21;5.55;;;4.10;;
23388;SDS011;11867;51.198;11.966;2023-08-31T03:56:45;5.28;;;4.30;;
23388;SDS011;11867;51.198;11.966;2023-08-31T03:58:07;5.93;;;4.40;;
23388;SDS011;11867;51.198;11.966;2023-08-31T03:59:29;5.70;;;4.10;;
23388;SDS011;11867;51.198;11.966;2023-08-31T04:00:52;5.93;;;4.45;;
23388;SDS011;11867;51.198;11.966;2023-08-31T04:02:14;5.22;;;4.70;;
23388;SDS011;11867;51.198;11.966;2023-08-31T04:03:37;5.00;;;4.05;;
23388;SDS011;11867;51.198;11.966;2023-08-31T04:05:00;6.93;;;4.85;;
23388;SDS011;11867;51.198;11.966;2023-08-31T04:06:23;4.47;;;4.00;;
23388;SDS011;11867;51.198;11.966;2023-08-31T04:07:45;6.65;;;4.05;;
23388;SDS011;11867;51.198;11.966;2023-08-31T04:09:08;5.88;;;5.03;;
23388;SDS011;11867;51.198;11.966;2023-08-31T04:10:30;5.50;;;4.28;;
23388;SDS011;11867;51.198;11.966;2023-08-31T04:11:55;5.03;;;4.53;;
23388;SDS011;11867;51.198;11.966;2023-08-31T04:13:17;6.15;;;5.55;;
23388;SDS011;11867;51.198;11.966;2023-08-31T04:14:40;6.43;;;5.22;;
23388;SDS011;11867;51.198;11.966;2023-08-31T04:16:02;6.60;;;4.85;;
23388;SDS011;11867;51.198;11.966;2023-08-31T04:17:26;6.43;;;5.57;;
23388;SDS011;11867;51.198;11.966;2023-08-31T04:18:48;5.47;;;4.60;;
23388;SDS011;11867;51.198;11.966;2023-08-31T04:20:13;6.18;;;5.57;;
23388;SDS011;11867;51.198;11.966;2023-08-31T04:21:35;7.45;;;5.82;;
23388;SDS011;11867;51.198;11.966;2023-08-31T04:22:59;6.32;;;5.60;;
23388;SDS011;11867;51.198;11.966;2023-08-31T04:24:21;8.30;;;5.60;;
23388;SDS011;11867;51.198;11.966;2023-08-31T04:25:45;6.65;;;5.95;;
23388;SDS011;11867;51.198;11.966;2023-08-31T04:27:10;6.97;;;6.25;;
23388;SDS011;11867;51.198;11.966;2023-08-31T04:28:33;7.78;;;6.13;;
23388;SDS011;11867;51.198;11.966;2023-08-31T04:29:55;7.40;;;6.65;;
23388;SDS011;11867;51.198;11.966;2023-08-31T04:31:18;7.07;;;6.38;;
23388;SDS011;11867;51.198;11.966;2023-08-31T04:32:40;7.90;;;6.03;;
23388;SDS011;11867;51.198;11.966;2023-08-31T04:34:03;7.07;;;6.38;;
23388;SDS011;11867;51.198;11.966;2023-08-31T04:35:25;8.80;;;6.63;;
23388;SDS011;11867;51.198;11.966;2023-08-31T04:36:48;9.27;;;6.47;;
23388;SDS011;11867;51.198;11.966;2023-08-31T04:38:11;7.05;;;6.35;;
23388;SDS011;11867;51.198;11.966;2023-08-31T04:39:34;6.90;;;6.20;;
23388;SDS011;11867;51.198;11.966;2023-08-31T04:40:57;7.75;;;6.45;;
23388;SDS011;11867;51.198;11.966;2023-08-31T04:42:22;7.32;;;6.53;;
23388;SDS011;11867;51.198;11.966;2023-08-31T04:43:44;8.55;;;6.53;;
23388;SDS011;11867;51.198;11.966;2023-08-31T04:45:09;8.75;;;6.78;;
23388;SDS011;11867;51.198;11.966;2023-08-31T04:46:33;8.45;;;7.53;;
23388;SDS011;11867;51.198;11.966;2023-08-31T04:47:56;8.35;;;7.28;;
23388;SDS011;11867;51.198;11.966;2023-08-31T04:49:18;7.43;;;6.53;;
23388;SDS011;11867;51.198;11.966;2023-08-31T04:50:41;7.57;;;6.78;;
23388;SDS011;11867;51.198;11.966;2023-08-31T04:52:03;7.90;;;7.10;;
23388;SDS011;11867;51.198;11.966;2023-08-31T04:53:26;10.75;;;7.80;;
23388;SDS011;11867;51.198;11.966;2023-08-31T04:54:48;9.85;;;7.13;;
23388;SDS011;11867;51.198;11.966;2023-08-31T04:56:11;9.45;;;6.93;;
23388;SDS011;11867;51.198;11.966;2023-08-31T04:57:36;8.07;;;7.30;;
23388;SDS011;11867;51.198;11.966;2023-08-31T04:58:58;10.10;;;7.68;;
23388;SDS011;11867;51.198;11.966;2023-08-31T05:00:22;7.60;;;6.88;;
23388;SDS011;11867;51.198;11.966;2023-08-31T05:01:44;10.60;;;7.85;;
23388;SDS011;11867;51.198;11.966;2023-08-31T05:03:07;10.48;;;7.65;;
23388;SDS011;11867;51.198;11.966;2023-08-31T05:04:29;10.50;;;7.57;;
23388;SDS011;11867;51.198;11.966;2023-08-31T05:05:52;9.95;;;7.20;;
23388;SDS011;11867;51.198;11.966;2023-08-31T05:07:15;8.00;;;7.30;;
23388;SDS011;11867;51.198;11.966;2023-08-31T05:08:38;9.70;;;7.40;;
23388;SDS011;11867;51.198;11.966;2023-08-31T05:10:00;9.55;;;7.68;;
23388;SDS011;11867;51.198;11.966;2023-08-31T05:11:23;10.77;;;7.65;;
23388;SDS011;11867;51.198;11.966;2023-08-31T05:12:47;9.52;;;7.78;;
23388;SDS011;11867;51.198;11.966;2023-08-31T05:14:10;7.50;;;6.63;;
23388;SDS011;11867;51.198;11.966;2023-08-31T05:15:32;11.27;;;7.25;;
23388;SDS011;11867;51.198;11.966;2023-08-31T05:16:55;10.05;;;6.90;;
23388;SDS011;11867;51.198;11.966;2023-08-31T05:18:17;7.90;;;7.20;;
23388;SDS011;11867;51.198;11.966;2023-08-31T05:19:40;10.27;;;7.07;;
23388;SDS011;11867;51.198;11.966;2023-08-31T05:21:03;7.65;;;6.85;;
23388;SDS011;11867;51.198;11.966;2023-08-31T05:22:26;7.93;;;6.78;;
23388;SDS011;11867;51.198;11.966;2023-08-31T05:23:48;9.15;;;6.55;;
23388;SDS011;11867;51.198;11.966;2023-08-31T05:25:11;9.25;;;6.28;;
23388;SDS011;11867;51.198;11.966;2023-08-31T05:26:33;8.35;;;6.70;;
23388;SDS011;11867;51.198;11.966;2023-08-31T05:27:58;9.52;;;7.78;;
23388;SDS011;11867;51.198;11.966;2023-08-31T05:29:20;7.88;;;7.07;;
23388;SDS011;11867;51.198;11.966;2023-08-31T05:30:47;9.57;;;7.07;;
23388;SDS011;11867;51.198;11.966;2023-08-31T05:32:10;8.00;;;7.03;;
23388;SDS011;11867;51.198;11.966;2023-08-31T05:33:33;7.93;;;7.10;;
23388;SDS011;11867;51.198;11.966;2023-08-31T05:34:56;7.40;;;6.40;;
23388;SDS011;11867;51.198;11.966;2023-08-31T05:36:19;8.07;;;7.15;;
23388;SDS011;11867;51.198;11.966;2023-08-31T05:37:41;8.27;;;6.80;;
23388;SDS011;11867;51.198;11.966;2023-08-31T05:39:04;8.00;;;7.20;;
23388;SDS011;11867;51.198;11.966;2023-08-31T05:40:26;10.18;;;6.85;;
23388;SDS011;11867;51.198;11.966;2023-08-31T05:41:49;10.27;;;7.10;;
23388;SDS011;11867;51.198;11.966;2023-08-31T05:43:14;8.25;;;6.50;;
23388;SDS011;11867;51.198;11.966;2023-08-31T05:44:36;11.32;;;6.88;;
23388;SDS011;11867;51.198;11.966;2023-08-31T05:45:59;10.77;;;7.15;;
23388;SDS011;11867;51.198;11.966;2023-08-31T05:47:21;9.48;;;7.03;;
23388;SDS011;11867;51.198;11.966;2023-08-31T05:48:44;8.40;;;6.72;;
23388;SDS011;11867;51.198;11.966;2023-08-31T05:50:06;8.65;;;5.95;;
23388;SDS011;11867;51.198;11.966;2023-08-31T05:51:30;7.72;;;6.22;;
23388;SDS011;11867;51.198;11.966;2023-08-31T05:52:52;7.60;;;6.50;;
23388;SDS011;11867;51.198;11.966;2023-08-31T05:54:15;7.47;;;6.18;;
23388;SDS011;11867;51.198;11.966;2023-08-31T05:55:37;10.93;;;6.32;;
23388;SDS011;11867;51.198;11.966;2023-08-31T05:57:02;7.05;;;6.28;;
23388;SDS011;11867;51.198;11.966;2023-08-31T05:58:26;10.13;;;7.07;;
23388;SDS011;11867;51.198;11.966;2023-08-31T05:59:49;9.73;;;6.22;;
23388;SDS011;11867;51.198;11.966;2023-08-31T06:01:11;8.88;;;5.97;;
23388;SDS011;11867;51.198;11.966;2023-08-31T06:02:34;6.72;;;5.72;;
23388;SDS011;11867;51.198;11.966;2023-08-31T06:03:57;8.95;;;6.35;;
23388;SDS011;11867;51.198;11.966;2023-08-31T06:05:20;7.43;;;6.05;;
23388;SDS011;11867;51.198;11.966;2023-08-31T06:06:42;6.57;;;5.95;;
23388;SDS011;11867;51.198;11.966;2023-08-31T06:08:05;7.63;;;6.18;;
23388;SDS011;11867;51.198;11.966;2023-08-31T06:09:27;8.35;;;6.03;;
23388;SDS011;11867;51.198;11.966;2023-08-31T06:10:50;9.25;;;6.25;;
23388;SDS011;11867;51.198;11.966;2023-08-31T06:12:13;7.22;;;5.75;;
23388;SDS011;11867;51.198;11.966;2023-08-31T06:13:38;6.60;;;6.00;;
23388;SDS011;11867;51.198;11.966;2023-08-31T06:15:00;8.18;;;6.45;;
23388;SDS011;11867;51.198;11.966;2023-08-31T06:16:24;6.38;;;5.78;;
23388;SDS011;11867;51.198;11.966;2023-08-31T06:17:46;8.98;;;6.55;;
23388;SDS011;11867;51.198;11.966;2023-08-31T06:19:09;10.93;;;5.63;;
23388;SDS011;11867;51.198;11.966;2023-08-31T06:20:31;6.22;;;5.55;;
23388;SDS011;11867;51.198;11.966;2023-08-31T06:21:55;8.68;;;5.63;;
23388;SDS011;11867;51.198;11.966;2023-08-31T06:23:17;7.57;;;5.43;;
23388;SDS011;11867;51.198;11.966;2023-08-31T06:24:40;6.05;;;5.32;;
23388;SDS011;11867;51.198;11.966;2023-08-31T06:26:02;6.28;;;5.68;;
23388;SDS011;11867;51.198;11.966;2023-08-31T06:27:26;6.60;;;5.55;;
23388;SDS011;11867;51.198;11.966;2023-08-31T06:28:49;6.07;;;5.00;;
23388;SDS011;11867;51.198;11.966;2023-08-31T06:30:13;8.05;;;5.05;;
23388;SDS011;11867;51.198;11.966;2023-08-31T06:31:37;4.97;;;4.47;;
23388;SDS011;11867;51.198;11.966;2023-08-31T06:33:00;6.50;;;5.13;;
23388;SDS011;11867;51.198;11.966;2023-08-31T06:34:22;8.65;;;5.50;;
23388;SDS011;11867;51.198;11.966;2023-08-31T06:35:46;7.90;;;4.63;;
23388;SDS011;11867;51.198;11.966;2023-08-31T06:37:10;7.28;;;5.43;;
23388;SDS011;11867;51.198;11.966;2023-08-31T06:38:33;6.07;;;4.53;;
23388;SDS011;11867;51.198;11.966;2023-08-31T06:39:56;6.38;;;4.95;;
23388;SDS011;11867;51.198;11.966;2023-08-31T06:41:18;5.85;;;5.22;;
23388;SDS011;11867;51.198;11.966;2023-08-31T06:42:40;9.00;;;5.15;;
23388;SDS011;11867;51.198;11.966;2023-08-31T06:44:06;5.10;;;4.60;;
23388;SDS011;11867;51.198;11.966;2023-08-31T06:45:28;7.03;;;4.60;;
23388;SDS011;11867;51.198;11.966;2023-08-31T06:46:50;7.07;;;4.60;;
23388;SDS011;11867;51.198;11.966;2023-08-31T06:48:13;5.50;;;5.00;;
23388;SDS011;11867;51.198;11.966;2023-08-31T06:49:36;5.28;;;4.47;;
23388;SDS011;11867;51.198;11.966;2023-08-31T06:50:58;6.22;;;4.63;;
23388;SDS011;11867;51.198;11.966;2023-08-31T06:52:21;7.07;;;4.90;;
23388;SDS011;11867;51.198;11.966;2023-08-31T06:53:50;5.22;;;4.72;;
23388;SDS011;11867;51.198;11.966;2023-08-31T06:55:13;5.20;;;4.25;;
23388;SDS011;11867;51.198;11.966;2023-08-31T06:56:36;4.85;;;4.35;;
23388;SDS011;11867;51.198;11.966;2023-08-31T06:57:58;4.72;;;4.07;;
23388;SDS011;11867;51.198;11.966;2023-08-31T06:59:23;5.90;;;4.05;;
23388;SDS011;11867;51.198;11.966;2023-08-31T07:00:45;6.65;;;4.38;;
23388;SDS011;11867;51.198;11.966;2023-08-31T07:02:09;6.43;;;4.53;;
23388;SDS011;11867;51.198;11.966;2023-08-31T07:03:31;6.60;;;5.40;;
23388;SDS011;11867;51.198;11.966;2023-08-31T07:04:54;6.18;;;4.47;;
23388;SDS011;11867;51.198;11.966;2023-08-31T07:06:16;5.85;;;4.88;;
23388;SDS011;11867;51.198;11.966;2023-08-31T07:07:39;7.28;;;4.47;;
23388;SDS011;11867;51.198;11.966;2023-08-31T07:09:01;5.05;;;4.07;;
23388;SDS011;11867;51.198;11.966;2023-08-31T07:10:24;5.32;;;4.35;;
23388;SDS011;11867;51.198;11.966;2023-08-31T07:11:47;5.90;;;4.45;;
23388;SDS011;11867;51.198;11.966;2023-08-31T07:13:09;7.03;;;4.70;;
23388;SDS011;11867;51.198;11.966;2023-08-31T07:14:34;5.00;;;4.40;;
23388;SDS011;11867;51.198;11.966;2023-08-31T07:15:56;4.90;;;3.88;;
23388;SDS011;11867;51.198;11.966;2023-08-31T07:17:20;5.07;;;4.13;;
23388;SDS011;11867;51.198;11.966;2023-08-31T07:18:42;7.68;;;4.97;;
23388;SDS011;11867;51.198;11.966;2023-08-31T07:20:06;6.10;;;4.80;;
23388;SDS011;11867;51.198;11.966;2023-08-31T07:21:29;6.88;;;4.38;;
23388;SDS011;11867;51.198;11.966;2023-08-31T07:22:52;5.45;;;4.85;;
23388;SDS011;11867;51.198;11.966;2023-08-31T07:24:14;7.28;;;4.43;;
23388;SDS011;11867;51.198;11.966;2023-08-31T07:25:37;4.78;;;4.30;;
23388;SDS011;11867;51.198;11.966;2023-08-31T07:26:59;4.82;;;4.22;;
23388;SDS011;11867;51.198;11.966;2023-08-31T07:28:23;4.60;;;4.20;;
23388;SDS011;11867;51.198;11.966;2023-08-31T07:29:47;5.65;;;4.50;;
23388;SDS011;11867;51.198;11.966;2023-08-31T07:31:09;7.15;;;4.20;;
23388;SDS011;11867;51.198;11.966;2023-08-31T07:32:32;6.45;;;4.43;;
23388;SDS011;11867;51.198;11.966;2023-08-31T07:33:55;4.75;;;4.15;;
23388;SDS011;11867;51.198;11.966;2023-08-31T07:35:17;5.25;;;4.50;;
23388;SDS011;11867;51.198;11.966;2023-08-31T07:36:40;5.60;;;4.30;;
23388;SDS011;11867;51.198;11.966;2023-08-31T07:38:04;9.45;;;4.78;;
23388;SDS011;11867;51.198;11.966;2023-08-31T07:39:27;7.25;;;4.45;;
23388;SDS011;11867;51.198;11.966;2023-08-31T07:40:49;6.32;;;4.40;;
23388;SDS011;11867;51.198;11.966;2023-08-31T07:42:13;6.43;;;4.80;;
23388;SDS011;11867;51.198;11.966;2023-08-31T07:43:35;5.82;;;4.45;;
23388;SDS011;11867;51.198;11.966;2023-08-31T07:45:05;5.05;;;4.25;;
23388;SDS011;11867;51.198;11.966;2023-08-31T07:46:28;5.50;;;4.38;;
23388;SDS011;11867;51.198;11.966;2023-08-31T07:47:52;5.15;;;4.30;;
23388;SDS011;11867;51.198;11.966;2023-08-31T07:49:14;5.25;;;4.75;;
23388;SDS011;11867;51.198;11.966;2023-08-31T07:50:37;6.70;;;4.97;;
23388;SDS011;11867;51.198;11.966;2023-08-31T07:52:01;5.88;;;5.03;;
23388;SDS011;11867;51.198;11.966;2023-08-31T07:53:25;6.25;;;5.05;;
23388;SDS011;11867;51.198;11.966;2023-08-31T07:54:49;7.82;;;5.13;;
23388;SDS011;11867;51.198;11.966;2023-08-31T07:56:12;6.10;;;5.35;;
23388;SDS011;11867;51.198;11.966;2023-08-31T07:57:35;7.05;;;5.35;;
23388;SDS011;11867;51.198;11.966;2023-08-31T07:58:58;6.20;;;4.85;;
23388;SDS011;11867;51.198;11.966;2023-08-31T08:00:22;7.57;;;5.20;;
23388;SDS011;11867;51.198;11.966;2023-08-31T08:01:45;8.27;;;5.40;;
23388;SDS011;11867;51.198;11.966;2023-08-31T08:03:07;8.68;;;5.30;;
23388;SDS011;11867;51.198;11.966;2023-08-31T08:04:31;7.30;;;5.07;;
23388;SDS011;11867;51.198;11.966;2023-08-31T08:05:55;5.57;;;4.95;;
23388;SDS011;11867;51.198;11.966;2023-08-31T08:07:17;6.00;;;5.20;;
23388;SDS011;11867;51.198;11.966;2023-08-31T08:08:40;5.70;;;4.55;;
23388;SDS011;11867;51.198;11.966;2023-08-31T08:10:03;12.02;;;5.25;;
23388;SDS011;11867;51.198;11.966;2023-08-31T08:11:27;6.28;;;4.90;;
23388;SDS011;11867;51.198;11.966;2023-08-31T08:12:49;5.63;;;4.88;;
23388;SDS011;11867;51.198;11.966;2023-08-31T08:14:12;6.63;;;5.18;;
23388;SDS011;11867;51.198;11.966;2023-08-31T08:15:35;8.35;;;5.13;;
23388;SDS011;11867;51.198;11.966;2023-08-31T08:16:58;10.52;;;5.32;;